createdAt,value
2023-05-04T00:01:18.535Z,6.13
2023-05-04T00:03:45.477Z,5.53
2023-05-04T00:06:12.289Z,6.53
2023-05-04T00:08:38.910Z,4.05
2023-05-04T00:11:05.462Z,5.38
2023-05-04T00:13:38.284Z,5.03
2023-05-04T00:16:09.963Z,4.05
2023-05-04T00:18:37.643Z,4.70
2023-05-04T00:21:04.241Z,6.78
2023-05-04T00:23:31.022Z,4.95
2023-05-04T00:26:00.764Z,5.60
2023-05-04T00:28:27.683Z,5.78
2023-05-04T00:30:54.810Z,5.90
2023-05-04T00:33:24.643Z,7.40
2023-05-04T00:35:51.424Z,10.93
2023-05-04T00:38:19.089Z,5.47
2023-05-04T00:40:45.689Z,4.85
2023-05-04T00:43:12.329Z,5.18
2023-05-04T00:45:39.993Z,5.50
2023-05-04T00:48:07.797Z,6.43
2023-05-04T00:50:34.971Z,6.35
2023-05-04T00:53:09.350Z,7.68
2023-05-04T00:55:42.194Z,5.93
2023-05-04T00:58:11.951Z,7.97
2023-05-04T01:00:38.773Z,5.13
2023-05-04T01:03:34.013Z,5.30
2023-05-04T01:06:25.794Z,5.72
2023-05-04T01:09:20.436Z,5.18
2023-05-04T01:12:04.687Z,5.78
2023-05-04T01:14:31.884Z,4.07
2023-05-04T01:16:59.968Z,6.57
2023-05-04T01:19:29.005Z,11.23
2023-05-04T01:21:56.563Z,5.40
2023-05-04T01:24:24.769Z,5.22
2023-05-04T01:26:57.402Z,6.18
2023-05-04T01:30:07.431Z,6.25
2023-05-04T01:32:35.784Z,5.32
2023-05-04T01:35:02.878Z,4.55
2023-05-04T01:37:29.484Z,6.85
2023-05-04T01:39:59.136Z,9.27
2023-05-04T01:42:25.778Z,3.88
2023-05-04T01:44:52.363Z,7.00
2023-05-04T01:47:18.919Z,7.55
2023-05-04T01:49:45.673Z,5.38
2023-05-04T01:52:12.284Z,7.50
2023-05-04T01:54:38.817Z,5.80
2023-05-04T01:57:08.171Z,6.20
2023-05-04T01:59:35.861Z,4.90
2023-05-04T02:02:03.350Z,4.88
2023-05-04T02:04:30.423Z,4.28
2023-05-04T02:06:57.021Z,6.93
2023-05-04T02:09:23.661Z,3.92
2023-05-04T02:11:50.271Z,7.63
2023-05-04T02:14:17.014Z,4.78
2023-05-04T02:16:43.853Z,4.38
2023-05-04T02:19:10.812Z,4.53
2023-05-04T02:21:52.463Z,5.88
2023-05-04T02:24:19.187Z,4.45
2023-05-04T02:26:45.893Z,7.82
2023-05-04T02:29:12.592Z,4.03
2023-05-04T02:31:39.310Z,5.40
2023-05-04T02:34:06.033Z,6.43
2023-05-04T02:36:32.675Z,6.22
2023-05-04T02:39:00.451Z,4.35
2023-05-04T02:41:27.140Z,4.85
2023-05-04T02:43:53.744Z,5.80
2023-05-04T02:46:20.435Z,6.05
2023-05-04T02:48:47.050Z,5.35
2023-05-04T02:51:13.716Z,7.13
2023-05-04T02:53:40.427Z,7.15
2023-05-04T02:56:07.168Z,5.45
2023-05-04T02:58:33.778Z,6.85
2023-05-04T03:01:00.521Z,5.95
2023-05-04T03:03:27.215Z,5.95
2023-05-04T03:05:53.920Z,5.10
2023-05-04T03:08:20.561Z,5.57
2023-05-04T03:10:47.163Z,6.45
2023-05-04T03:13:13.788Z,6.28
2023-05-04T03:15:40.843Z,5.47
2023-05-04T03:18:08.462Z,8.05
2023-05-04T03:20:35.111Z,8.25
2023-05-04T03:23:04.598Z,5.43
2023-05-04T03:25:31.277Z,6.40
2023-05-04T03:27:57.916Z,7.35
2023-05-04T03:30:24.695Z,6.50
2023-05-04T03:32:51.460Z,6.88
2023-05-04T03:35:24.388Z,7.15
2023-05-04T03:37:51.767Z,6.85
2023-05-04T03:40:22.766Z,7.05
2023-05-04T03:42:49.738Z,6.38
2023-05-04T03:45:16.406Z,6.72
2023-05-04T03:47:43.071Z,7.97
2023-05-04T03:50:11.030Z,7.38
2023-05-04T03:52:37.649Z,6.05
2023-05-04T03:55:04.586Z,7.68
2023-05-04T03:57:31.163Z,8.48
2023-05-04T03:59:58.044Z,8.23
2023-05-04T04:02:25.089Z,9.77
2023-05-04T04:04:54.914Z,8.30
2023-05-04T04:07:21.543Z,7.55
2023-05-04T04:09:48.229Z,7.55
2023-05-04T04:12:18.208Z,7.15
2023-05-04T04:14:45.115Z,6.18
2023-05-04T04:17:11.669Z,7.30
2023-05-04T04:19:38.266Z,7.82
2023-05-04T04:22:04.851Z,9.88
2023-05-04T04:24:31.793Z,6.32
2023-05-04T04:26:58.372Z,10.90
2023-05-04T04:29:25.076Z,5.93
2023-05-04T04:31:51.762Z,8.55
2023-05-04T04:34:18.644Z,11.13
2023-05-04T04:36:45.274Z,7.88
2023-05-04T04:39:12.110Z,9.40
2023-05-04T04:41:38.669Z,7.43
2023-05-04T04:44:05.682Z,7.93
2023-05-04T04:46:32.546Z,8.75
2023-05-04T04:48:59.179Z,7.70
2023-05-04T04:51:26.432Z,9.77
2023-05-04T04:53:53.192Z,10.80
2023-05-04T04:56:20.563Z,11.40
2023-05-04T04:58:47.588Z,9.45
2023-05-04T05:01:17.927Z,8.57
2023-05-04T05:03:45.431Z,7.20
2023-05-04T05:06:13.148Z,9.30
2023-05-04T05:08:40.175Z,8.45
2023-05-04T05:11:11.295Z,10.52
2023-05-04T05:13:38.057Z,8.55
2023-05-04T05:16:05.154Z,9.45
2023-05-04T05:18:32.156Z,8.93
2023-05-04T05:20:58.966Z,8.52
2023-05-04T05:23:26.931Z,10.82
2023-05-04T05:25:53.616Z,8.90
2023-05-04T05:28:20.323Z,7.00
2023-05-04T05:30:47.911Z,9.60
2023-05-04T05:33:14.623Z,9.80
2023-05-04T05:35:41.284Z,7.28
2023-05-04T05:38:07.954Z,10.82
2023-05-04T05:40:34.559Z,9.32
2023-05-04T05:43:01.306Z,8.15
2023-05-04T05:45:27.986Z,12.10
2023-05-04T05:47:54.813Z,10.73
2023-05-04T05:50:23.919Z,10.15
2023-05-04T05:52:50.765Z,10.65
2023-05-04T05:55:17.645Z,8.65
2023-05-04T05:57:44.320Z,8.55
2023-05-04T06:00:12.584Z,9.10
2023-05-04T06:02:39.730Z,8.88
2023-05-04T06:05:06.829Z,8.95
2023-05-04T06:07:33.513Z,10.10
2023-05-04T06:10:00.229Z,11.25
2023-05-04T06:12:26.844Z,7.93
2023-05-04T06:14:53.526Z,9.10
2023-05-04T06:17:21.625Z,8.70
2023-05-04T06:19:50.866Z,9.98
2023-05-04T06:22:17.918Z,9.38
2023-05-04T06:24:44.600Z,8.75
2023-05-04T06:27:11.376Z,6.90
2023-05-04T06:29:40.203Z,8.32
2023-05-04T06:32:07.867Z,6.75
2023-05-04T06:34:34.593Z,5.55
2023-05-04T06:37:01.777Z,8.02
2023-05-04T06:39:28.344Z,9.63
2023-05-04T06:41:55.537Z,8.30
2023-05-04T06:44:22.461Z,6.40
2023-05-04T06:46:49.060Z,7.07
2023-05-04T06:49:17.630Z,7.15
2023-05-04T06:51:44.224Z,12.10
2023-05-04T06:54:11.207Z,9.20
2023-05-04T06:56:39.695Z,7.40
2023-05-04T06:59:07.039Z,9.45
2023-05-04T07:01:33.750Z,6.07
2023-05-04T07:04:00.803Z,9.18
2023-05-04T07:06:28.490Z,8.75
2023-05-04T07:08:55.164Z,6.70
2023-05-04T07:11:22.052Z,11.00
2023-05-04T07:13:48.890Z,9.80
2023-05-04T07:16:15.579Z,8.45
2023-05-04T07:18:42.351Z,7.90
2023-05-04T07:21:26.880Z,9.05
2023-05-04T07:23:55.667Z,8.73
2023-05-04T07:26:23.064Z,7.30
2023-05-04T07:28:49.776Z,10.88
2023-05-04T07:31:18.372Z,10.55
2023-05-04T07:33:45.646Z,6.72
2023-05-04T07:36:12.414Z,10.05
2023-05-04T07:38:39.022Z,9.13
2023-05-04T07:41:07.078Z,8.50
2023-05-04T07:43:33.943Z,11.18
2023-05-04T07:46:01.495Z,9.73
2023-05-04T07:48:28.180Z,9.90
2023-05-04T07:50:54.793Z,10.85
2023-05-04T07:53:21.435Z,8.98
2023-05-04T07:55:48.898Z,8.90
2023-05-04T07:58:18.214Z,11.82
2023-05-04T08:00:44.816Z,11.30
2023-05-04T08:03:11.554Z,8.98
2023-05-04T08:05:38.227Z,10.63
2023-05-04T08:08:05.002Z,6.10
2023-05-04T08:10:31.975Z,7.45
2023-05-04T08:12:58.765Z,9.27
2023-05-04T08:15:25.716Z,9.27
2023-05-04T08:17:52.513Z,6.85
2023-05-04T08:20:19.530Z,10.07
2023-05-04T08:22:47.375Z,11.25
2023-05-04T08:25:14.020Z,8.88
2023-05-04T08:27:41.886Z,8.63
2023-05-04T08:30:09.526Z,11.20
2023-05-04T08:32:36.213Z,12.05
2023-05-04T08:35:03.491Z,8.82
2023-05-04T08:37:30.840Z,6.72
2023-05-04T08:39:57.421Z,7.80
2023-05-04T08:42:28.613Z,5.57
2023-05-04T08:44:59.088Z,10.20
2023-05-04T08:47:26.903Z,6.45
2023-05-04T08:49:54.609Z,11.52
2023-05-04T08:52:24.463Z,11.02
2023-05-04T08:54:56.228Z,9.25
2023-05-04T08:57:24.156Z,8.82
2023-05-04T08:59:53.993Z,11.00
2023-05-04T09:02:22.764Z,6.38
2023-05-04T09:04:50.226Z,6.10
2023-05-04T09:07:21.877Z,7.10
2023-05-04T09:09:50.816Z,8.52
2023-05-04T09:12:19.430Z,7.85
2023-05-04T09:14:48.499Z,8.07
2023-05-04T09:17:27.708Z,8.60
2023-05-04T09:20:02.151Z,7.28
2023-05-04T09:22:30.128Z,6.13
2023-05-04T09:25:11.196Z,7.72
2023-05-04T09:27:40.450Z,8.43
2023-05-04T09:30:09.942Z,8.93
2023-05-04T09:32:46.386Z,7.50
2023-05-04T09:35:22.007Z,7.18
2023-05-04T09:37:58.101Z,9.13
2023-05-04T09:40:32.753Z,7.47
2023-05-04T09:43:00.979Z,8.02
2023-05-04T09:45:41.982Z,10.50
2023-05-04T09:48:25.628Z,11.48
2023-05-04T09:50:54.434Z,8.30
2023-05-04T09:53:24.690Z,12.38
2023-05-04T09:56:10.927Z,8.82
2023-05-04T09:58:38.234Z,6.55
2023-05-04T10:01:05.434Z,7.28
2023-05-04T10:03:33.094Z,7.18
2023-05-04T10:06:02.591Z,7.35
2023-05-04T10:08:29.770Z,8.00
2023-05-04T10:10:57.240Z,8.98
2023-05-04T10:13:25.320Z,7.38
2023-05-04T10:16:24.199Z,7.60
2023-05-04T10:19:29.185Z,8.00
2023-05-04T10:22:27.482Z,9.30
2023-05-04T10:25:32.262Z,7.05
2023-05-04T10:28:23.595Z,6.82
2023-05-04T10:30:57.973Z,4.97
2023-05-04T10:33:42.244Z,7.50
2023-05-04T10:36:10.244Z,7.38
2023-05-04T10:38:38.979Z,5.72
2023-05-04T10:41:18.090Z,8.30
2023-05-04T10:43:51.818Z,8.02
2023-05-04T10:46:22.728Z,7.20
2023-05-04T10:48:49.972Z,5.88
2023-05-04T10:51:21.244Z,7.07
2023-05-04T10:53:48.027Z,7.25
2023-05-04T10:56:25.768Z,5.80
2023-05-04T10:58:53.705Z,5.38
2023-05-04T11:01:22.023Z,7.38
2023-05-04T11:03:49.707Z,4.88
2023-05-04T11:06:24.950Z,4.07
2023-05-04T11:09:10.382Z,8.20
2023-05-04T11:11:37.524Z,6.47
2023-05-04T11:14:04.247Z,5.55
2023-05-04T11:16:36.679Z,5.40
2023-05-04T11:19:09.817Z,7.20
2023-05-04T11:21:36.675Z,4.75
2023-05-04T11:24:03.657Z,5.57
2023-05-04T11:26:30.307Z,3.95
2023-05-04T11:28:57.107Z,4.80
2023-05-04T11:31:23.899Z,3.88
2023-05-04T11:33:52.849Z,4.55
2023-05-04T11:36:20.255Z,4.05
2023-05-04T11:38:47.506Z,5.47
2023-05-04T11:41:19.128Z,3.92
2023-05-04T11:43:46.868Z,4.82
2023-05-04T11:46:16.475Z,5.45
2023-05-04T11:48:43.510Z,3.95
2023-05-04T11:51:11.162Z,3.75
2023-05-04T11:53:41.587Z,5.28
2023-05-04T11:56:08.995Z,5.45
2023-05-04T11:58:36.402Z,6.65
2023-05-04T12:01:06.874Z,5.53
2023-05-04T12:03:52.259Z,6.07
2023-05-04T12:06:32.164Z,4.97
2023-05-04T12:09:04.284Z,4.38
2023-05-04T12:11:30.945Z,3.88
2023-05-04T12:14:17.066Z,3.70
2023-05-04T12:16:55.323Z,3.45
2023-05-04T12:19:22.023Z,6.22
2023-05-04T12:21:53.286Z,6.60
2023-05-04T12:24:23.831Z,3.53
2023-05-04T12:26:51.113Z,3.40
2023-05-04T12:29:17.938Z,4.53
2023-05-04T12:31:44.722Z,3.45
2023-05-04T12:34:11.412Z,4.68
2023-05-04T12:36:38.148Z,4.95
2023-05-04T12:39:04.792Z,3.85
2023-05-04T12:41:31.643Z,5.05
2023-05-04T12:43:58.414Z,2.92
2023-05-04T12:46:25.012Z,4.05
2023-05-04T12:48:51.598Z,4.07
2023-05-04T12:51:18.238Z,5.53
2023-05-04T12:53:44.876Z,4.35
2023-05-04T12:56:11.671Z,5.20
2023-05-04T12:58:41.089Z,4.93
2023-05-04T13:01:07.851Z,3.15
2023-05-04T13:03:34.610Z,3.08
2023-05-04T13:06:01.331Z,5.78
2023-05-04T13:08:28.024Z,5.10
2023-05-04T13:10:54.938Z,4.03
2023-05-04T13:13:26.097Z,5.45
2023-05-04T13:15:53.054Z,3.95
2023-05-04T13:18:19.877Z,4.57
2023-05-04T13:20:46.951Z,3.60
2023-05-04T13:23:13.973Z,2.85
2023-05-04T13:25:40.703Z,3.10
2023-05-04T13:28:07.331Z,4.18
2023-05-04T13:30:33.909Z,4.47
2023-05-04T13:33:00.572Z,3.13
2023-05-04T13:35:27.362Z,6.43
2023-05-04T13:37:54.075Z,2.97
2023-05-04T13:40:20.698Z,5.28
2023-05-04T13:42:50.775Z,3.15
2023-05-04T13:45:17.765Z,6.97
2023-05-04T13:47:45.112Z,5.88
2023-05-04T13:50:12.258Z,4.18
2023-05-04T13:52:38.889Z,3.63
2023-05-04T13:55:05.987Z,4.55
2023-05-04T13:57:32.846Z,6.22
2023-05-04T14:00:06.968Z,3.40
2023-05-04T14:02:34.783Z,3.50
2023-05-04T14:05:02.624Z,5.72
2023-05-04T14:07:29.956Z,5.55
2023-05-04T14:09:56.889Z,3.50
2023-05-04T14:12:23.998Z,4.45
2023-05-04T14:14:50.918Z,2.45
2023-05-04T14:17:20.996Z,5.60
2023-05-04T14:19:47.656Z,2.53
2023-05-04T14:22:14.274Z,4.53
2023-05-04T14:24:40.924Z,3.35
2023-05-04T14:27:07.659Z,3.42
2023-05-04T14:29:34.493Z,3.50
2023-05-04T14:32:01.153Z,6.28
2023-05-04T14:34:30.596Z,2.83
2023-05-04T14:36:57.604Z,5.28
2023-05-04T14:39:24.718Z,4.82
2023-05-04T14:41:52.782Z,2.97
2023-05-04T14:44:22.587Z,2.65
2023-05-04T14:46:49.346Z,5.03
2023-05-04T14:49:21.703Z,5.63
2023-05-04T14:51:51.498Z,5.20
2023-05-04T14:54:18.172Z,2.67
2023-05-04T14:56:44.918Z,2.90
2023-05-04T14:59:11.565Z,4.57
2023-05-04T15:01:38.235Z,4.90
2023-05-04T15:04:05.128Z,3.60
2023-05-04T15:06:33.829Z,3.67
2023-05-04T15:09:00.532Z,3.58
2023-05-04T15:11:30.329Z,2.95
2023-05-04T15:13:58.815Z,5.32
2023-05-04T15:16:32.038Z,4.10
2023-05-04T15:19:01.733Z,4.10
2023-05-04T15:21:28.305Z,3.88
2023-05-04T15:23:54.895Z,5.13
2023-05-04T15:26:22.166Z,4.80
2023-05-04T15:28:49.230Z,2.97
2023-05-04T15:31:17.486Z,3.50
2023-05-04T15:33:44.350Z,5.22
2023-05-04T15:36:11.046Z,7.25
2023-05-04T15:38:37.801Z,6.00
2023-05-04T15:41:05.866Z,7.68
2023-05-04T15:43:33.491Z,5.22
2023-05-04T15:46:00.225Z,5.53
2023-05-04T15:48:27.656Z,4.55
2023-05-04T15:50:54.912Z,5.00
2023-05-04T15:53:21.698Z,2.67
2023-05-04T15:55:48.650Z,3.38
2023-05-04T15:58:15.242Z,7.22
2023-05-04T16:00:41.906Z,4.82
2023-05-04T16:03:08.682Z,2.85
2023-05-04T16:05:37.451Z,5.03
2023-05-04T16:08:04.152Z,3.40
2023-05-04T16:10:30.728Z,4.53
2023-05-04T16:13:00.166Z,4.63
2023-05-04T16:15:26.915Z,2.60
2023-05-04T16:17:54.530Z,4.10
2023-05-04T16:20:21.381Z,7.40
2023-05-04T16:22:47.997Z,3.85
2023-05-04T16:25:14.740Z,5.32
2023-05-04T16:27:41.413Z,4.07
2023-05-04T16:30:08.801Z,2.65
2023-05-04T16:32:35.751Z,6.40
2023-05-04T16:35:02.476Z,3.58
2023-05-04T16:37:29.038Z,5.10
2023-05-04T16:39:56.492Z,5.43
2023-05-04T16:42:23.203Z,3.97
2023-05-04T16:44:49.779Z,4.55
2023-05-04T16:47:18.808Z,6.43
2023-05-04T16:49:45.638Z,2.42
2023-05-04T16:52:12.252Z,4.40
2023-05-04T16:54:38.848Z,6.05
2023-05-04T16:57:05.631Z,3.95
2023-05-04T16:59:32.317Z,2.47
2023-05-04T17:01:59.242Z,6.32
2023-05-04T17:04:27.549Z,3.88
2023-05-04T17:06:54.446Z,3.58
2023-05-04T17:09:21.025Z,6.93
2023-05-04T17:11:47.725Z,4.07
2023-05-04T17:14:14.394Z,3.17
2023-05-04T17:16:42.164Z,5.63
2023-05-04T17:19:10.927Z,6.10
2023-05-04T17:21:37.982Z,3.28
2023-05-04T17:24:05.497Z,3.60
2023-05-04T17:26:32.193Z,5.00
2023-05-04T17:28:59.090Z,3.33
2023-05-04T17:31:25.939Z,2.90
2023-05-04T17:33:52.621Z,3.38
2023-05-04T17:36:19.461Z,5.05
2023-05-04T17:38:52.359Z,6.80
2023-05-04T17:41:19.029Z,3.03
2023-05-04T17:43:45.839Z,3.67
2023-05-04T17:46:13.100Z,5.72
2023-05-04T17:48:39.709Z,3.67
2023-05-04T17:51:09.484Z,6.05
2023-05-04T17:53:42.894Z,4.05
2023-05-04T17:56:09.487Z,3.78
2023-05-04T17:58:36.220Z,2.72
2023-05-04T18:01:03.063Z,4.50
2023-05-04T18:03:29.841Z,8.60
2023-05-04T18:05:56.527Z,3.13
2023-05-04T18:08:23.145Z,3.50
2023-05-04T18:10:50.370Z,4.03
2023-05-04T18:13:17.165Z,4.35
2023-05-04T18:15:44.016Z,3.92
2023-05-04T18:18:16.480Z,4.03
2023-05-04T18:20:43.184Z,3.95
2023-05-04T18:23:11.286Z,6.88
2023-05-04T18:25:37.928Z,4.35
2023-05-04T18:28:07.306Z,3.20
2023-05-04T18:30:33.933Z,5.43
2023-05-04T18:33:00.597Z,4.38
2023-05-04T18:35:27.323Z,10.85
2023-05-04T18:37:55.976Z,5.80
2023-05-04T18:40:23.815Z,5.93
2023-05-04T18:42:50.579Z,7.20
2023-05-04T18:45:17.291Z,6.18
2023-05-04T18:47:43.930Z,6.43
2023-05-04T18:50:13.188Z,3.95
2023-05-04T18:52:39.988Z,3.10
2023-05-04T18:55:09.229Z,5.53
2023-05-04T18:57:36.003Z,4.15
2023-05-04T19:00:03.398Z,3.70
2023-05-04T19:02:30.294Z,3.75
2023-05-04T19:04:58.351Z,5.70
2023-05-04T19:07:25.067Z,4.43
2023-05-04T19:09:53.155Z,4.80
2023-05-04T19:12:20.081Z,5.15
2023-05-04T19:14:46.924Z,5.32
2023-05-04T19:17:14.755Z,4.63
2023-05-04T19:19:41.589Z,2.95
2023-05-04T19:22:08.473Z,6.85
2023-05-04T19:24:36.190Z,4.65
2023-05-04T19:27:03.826Z,5.50
2023-05-04T19:29:30.663Z,6.75
2023-05-04T19:31:59.552Z,7.07
2023-05-04T19:34:28.061Z,6.03
2023-05-04T19:36:59.283Z,4.90
2023-05-04T19:39:31.948Z,7.15
2023-05-04T19:42:31.261Z,11.25
2023-05-04T19:45:00.744Z,10.55
2023-05-04T19:47:31.054Z,4.55
2023-05-04T19:49:57.983Z,10.88
2023-05-04T19:52:24.544Z,7.55
2023-05-04T19:54:53.626Z,5.55
2023-05-04T19:57:21.233Z,9.15
2023-05-04T19:59:47.853Z,13.75
2023-05-04T20:02:14.564Z,6.22
2023-05-04T20:04:41.269Z,7.10
2023-05-04T20:07:22.306Z,15.40
2023-05-04T20:09:48.918Z,8.98
2023-05-04T20:12:16.235Z,7.35
2023-05-04T20:14:43.600Z,7.43
2023-05-04T20:17:10.339Z,6.63
2023-05-04T20:19:42.739Z,9.80
2023-05-04T20:22:09.652Z,9.95
2023-05-04T20:24:36.385Z,7.10
2023-05-04T20:27:06.894Z,8.00
2023-05-04T20:29:42.716Z,9.98
2023-05-04T20:32:10.674Z,10.95
2023-05-04T20:34:39.517Z,6.55
2023-05-04T20:37:06.432Z,4.40
2023-05-04T20:39:33.248Z,12.07
2023-05-04T20:42:00.427Z,11.10
2023-05-04T20:44:28.041Z,10.13
2023-05-04T20:46:54.708Z,8.20
2023-05-04T20:55:03.236Z,7.40
2023-05-04T20:57:29.976Z,6.05
2023-05-04T20:59:56.707Z,7.95
2023-05-04T21:02:23.267Z,8.57
2023-05-04T21:04:50.275Z,6.40
2023-05-04T21:07:17.007Z,9.82
2023-05-04T21:09:43.731Z,7.68
2023-05-04T21:12:12.135Z,9.38
2023-05-04T21:14:38.821Z,9.10
2023-05-04T21:17:05.645Z,7.82
2023-05-04T21:19:32.783Z,10.20
2023-05-04T21:21:59.452Z,8.15
2023-05-04T21:24:26.479Z,6.60
2023-05-04T21:26:53.266Z,5.88
2023-05-04T21:29:19.877Z,6.57
2023-05-04T21:31:46.818Z,5.93
2023-05-04T21:34:33.617Z,10.40
2023-05-04T21:37:00.765Z,14.10
2023-05-04T21:39:27.479Z,9.65
2023-05-04T21:41:54.179Z,10.63
2023-05-04T21:44:21.077Z,6.88
2023-05-04T21:46:47.738Z,12.23
2023-05-04T21:49:14.384Z,7.95
2023-05-04T21:51:42.489Z,5.40
2023-05-04T21:54:09.163Z,10.98
2023-05-04T21:56:35.818Z,9.68
2023-05-04T21:59:03.057Z,8.55
2023-05-04T22:01:30.120Z,7.32
2023-05-04T22:03:57.108Z,9.02
2023-05-04T22:06:24.416Z,6.50
2023-05-04T22:08:53.367Z,8.48
2023-05-04T22:11:20.039Z,6.70
2023-05-04T22:13:47.703Z,6.68
2023-05-04T22:16:14.295Z,7.78
2023-05-04T22:18:41.628Z,9.93
2023-05-04T22:21:08.254Z,7.75
2023-05-04T22:23:34.869Z,11.38
2023-05-04T22:26:04.323Z,11.20
2023-05-04T22:28:31.139Z,7.70
2023-05-04T22:30:59.574Z,9.68
2023-05-04T22:33:27.571Z,8.57
2023-05-04T22:35:54.179Z,7.35
2023-05-04T22:38:21.708Z,10.10
2023-05-04T22:40:49.906Z,9.43
2023-05-04T22:43:19.724Z,11.73
2023-05-04T22:45:46.809Z,12.18
2023-05-04T22:48:14.935Z,15.57
2023-05-04T22:50:41.822Z,15.48
2023-05-04T22:53:09.639Z,27.25
2023-05-04T22:55:36.358Z,27.17
2023-05-04T22:58:02.987Z,27.88
2023-05-04T23:00:31.842Z,19.40
2023-05-04T23:02:58.945Z,20.67
2023-05-04T23:05:26.762Z,18.42
2023-05-04T23:07:53.452Z,16.60
2023-05-04T23:10:20.124Z,14.38
2023-05-04T23:12:47.361Z,14.35
2023-05-04T23:15:14.173Z,18.17
2023-05-04T23:17:41.073Z,15.52
2023-05-04T23:20:10.841Z,13.80
2023-05-04T23:22:40.361Z,12.98
2023-05-04T23:25:07.353Z,13.13
2023-05-04T23:27:37.107Z,15.93
2023-05-04T23:30:04.607Z,13.07
2023-05-04T23:32:31.253Z,12.80
2023-05-04T23:34:57.902Z,8.80
2023-05-04T23:37:24.812Z,7.97
2023-05-04T23:39:51.693Z,7.30
2023-05-04T23:42:18.441Z,7.00
2023-05-04T23:44:45.095Z,7.60
2023-05-04T23:47:11.718Z,5.68
2023-05-04T23:49:38.405Z,7.95
2023-05-04T23:52:05.101Z,7.03
2023-05-04T23:54:31.805Z,10.02
2023-05-04T23:56:59.107Z,11.38
2023-05-04T23:59:26.514Z,7.47
